createdAt,value
2023-10-24T00:00:40.279Z,5.90
2023-10-24T00:03:08.393Z,6.50
2023-10-24T00:05:36.318Z,6.40
2023-10-24T00:08:04.689Z,6.40
2023-10-24T00:10:32.811Z,10.20
2023-10-24T00:13:01.052Z,5.50
2023-10-24T00:15:29.054Z,7.00
2023-10-24T00:17:56.999Z,7.70
2023-10-24T00:20:25.110Z,7.00
2023-10-24T00:22:53.302Z,8.90
2023-10-24T00:25:21.368Z,6.90
2023-10-24T00:27:49.341Z,9.70
2023-10-24T00:30:17.908Z,8.30
2023-10-24T00:32:51.463Z,6.00
2023-10-24T00:35:20.059Z,5.30
2023-10-24T00:37:48.433Z,6.80
2023-10-24T00:40:16.890Z,4.80
2023-10-24T00:42:45.285Z,5.20
2023-10-24T00:45:13.503Z,6.50
2023-10-24T00:47:41.723Z,8.20
2023-10-24T00:50:10.040Z,6.20
2023-10-24T00:52:38.269Z,6.10
2023-10-24T00:55:07.177Z,6.70
2023-10-24T00:57:35.736Z,6.50
2023-10-24T01:00:04.165Z,4.40
2023-10-24T01:02:32.574Z,6.40
2023-10-24T01:05:01.309Z,5.50
2023-10-24T01:07:29.703Z,8.70
2023-10-24T01:09:57.957Z,5.60
2023-10-24T01:12:26.176Z,7.60
2023-10-24T01:14:54.368Z,5.80
2023-10-24T01:17:22.667Z,5.30
2023-10-24T01:19:50.889Z,16.20
2023-10-24T01:22:20.334Z,5.10
2023-10-24T01:24:48.810Z,11.10
2023-10-24T01:27:16.949Z,6.50
2023-10-24T01:29:45.201Z,5.20
2023-10-24T01:32:13.379Z,7.90
2023-10-24T01:34:41.912Z,4.20
2023-10-24T01:37:11.322Z,5.50
2023-10-24T01:39:39.758Z,5.20
2023-10-24T01:42:08.356Z,6.90
2023-10-24T01:44:36.849Z,6.30
2023-10-24T01:47:05.416Z,9.30
2023-10-24T01:49:33.813Z,7.60
2023-10-24T01:52:04.132Z,6.50
2023-10-24T01:54:32.510Z,8.00
2023-10-24T01:57:00.798Z,6.50
2023-10-24T01:59:29.365Z,4.60
2023-10-24T02:01:57.744Z,7.90
2023-10-24T02:04:26.048Z,7.30
2023-10-24T02:06:54.262Z,6.40
2023-10-24T02:09:22.808Z,6.90
2023-10-24T02:11:51.383Z,7.30
2023-10-24T02:14:19.766Z,6.90
2023-10-24T02:16:48.108Z,8.40
2023-10-24T02:19:16.659Z,13.50
2023-10-24T02:21:44.986Z,7.00
2023-10-24T02:24:13.391Z,7.60
2023-10-24T02:26:42.087Z,9.20
2023-10-24T02:29:10.278Z,6.70
2023-10-24T02:31:38.515Z,5.90
2023-10-24T02:34:06.882Z,6.00
2023-10-24T02:36:35.727Z,8.80
2023-10-24T02:39:04.157Z,19.60
2023-10-24T02:41:32.801Z,33.40
2023-10-24T02:44:01.788Z,63.90
2023-10-24T02:46:30.233Z,57.30
2023-10-24T02:48:58.546Z,64.50
2023-10-24T02:51:27.537Z,40.70
2023-10-24T02:53:55.817Z,30.10
2023-10-24T02:56:24.197Z,24.20
2023-10-24T02:58:52.434Z,17.40
2023-10-24T03:01:23.114Z,12.80
2023-10-24T03:03:52.991Z,10.70
2023-10-24T03:06:21.841Z,10.60
2023-10-24T03:08:51.184Z,19.00
2023-10-24T03:11:24.354Z,14.30
2023-10-24T03:13:56.275Z,16.70
2023-10-24T03:16:24.491Z,10.30
2023-10-24T03:18:52.610Z,10.00
2023-10-24T03:21:21.100Z,11.70
2023-10-24T03:23:49.364Z,8.70
2023-10-24T03:26:17.722Z,6.10
2023-10-24T03:28:46.669Z,9.90
2023-10-24T03:31:15.604Z,10.90
2023-10-24T03:33:44.444Z,7.30
2023-10-24T03:36:15.068Z,8.00
2023-10-24T03:38:44.476Z,10.40
2023-10-24T03:41:12.926Z,8.40
2023-10-24T03:43:41.045Z,6.40
2023-10-24T03:46:09.349Z,8.40
2023-10-24T03:48:37.412Z,10.00
2023-10-24T03:51:05.398Z,17.20
2023-10-24T03:53:33.399Z,9.20
2023-10-24T03:56:01.424Z,12.10
2023-10-24T03:58:29.588Z,8.00
2023-10-24T04:01:05.654Z,8.30
2023-10-24T04:03:34.015Z,11.00
2023-10-24T04:06:02.094Z,9.00
2023-10-24T04:08:30.150Z,16.40
2023-10-24T04:10:58.064Z,14.60
2023-10-24T04:13:26.119Z,9.10
2023-10-24T04:16:00.662Z,7.60
2023-10-24T04:18:28.900Z,9.20
2023-10-24T04:20:56.937Z,9.60
2023-10-24T04:23:25.044Z,9.10
2023-10-24T04:25:53.226Z,10.30
2023-10-24T04:28:21.200Z,12.90
2023-10-24T04:30:49.341Z,12.10
2023-10-24T04:33:17.111Z,9.10
2023-10-24T04:35:48.529Z,9.90
2023-10-24T04:38:16.994Z,8.80
2023-10-24T04:40:45.217Z,7.70
2023-10-24T04:43:13.383Z,14.20
2023-10-24T04:45:41.558Z,9.90
2023-10-24T04:48:09.620Z,11.30
2023-10-24T04:50:40.572Z,8.80
2023-10-24T04:53:08.383Z,17.00
2023-10-24T04:55:37.054Z,9.70
2023-10-24T04:58:05.128Z,7.50
2023-10-24T05:00:33.166Z,13.40
2023-10-24T05:03:01.387Z,9.00
2023-10-24T05:05:29.446Z,12.20
2023-10-24T05:07:57.285Z,16.90
2023-10-24T05:10:25.119Z,9.70
2023-10-24T05:12:53.389Z,10.30
2023-10-24T05:15:21.214Z,7.20
2023-10-24T05:17:51.433Z,9.90
2023-10-24T05:20:19.614Z,14.20
2023-10-24T05:22:47.478Z,9.90
2023-10-24T05:25:15.643Z,12.60
2023-10-24T05:27:43.893Z,9.40
2023-10-24T05:30:12.161Z,9.70
2023-10-24T05:32:40.216Z,8.80
2023-10-24T05:35:08.734Z,13.90
2023-10-24T05:37:36.783Z,11.80
2023-10-24T05:40:06.445Z,10.30
2023-10-24T05:42:34.492Z,8.70
2023-10-24T05:45:02.565Z,15.50
2023-10-24T05:47:30.487Z,15.30
2023-10-24T05:49:58.278Z,7.20
2023-10-24T05:52:26.113Z,9.10
2023-10-24T05:54:54.253Z,10.00
2023-10-24T05:57:24.674Z,9.50
2023-10-24T05:59:52.747Z,13.10
2023-10-24T06:02:20.718Z,16.30
2023-10-24T06:04:48.659Z,12.40
2023-10-24T06:07:16.481Z,9.50
2023-10-24T06:09:44.429Z,8.90
2023-10-24T06:12:12.492Z,9.90
2023-10-24T06:14:40.557Z,10.50
2023-10-24T06:17:08.737Z,7.90
2023-10-24T06:19:41.681Z,18.70
2023-10-24T06:22:11.219Z,9.80
2023-10-24T06:24:39.394Z,9.40
2023-10-24T06:27:07.252Z,10.50
2023-10-24T06:29:35.027Z,16.20
2023-10-24T06:32:03.308Z,11.60
2023-10-24T06:34:31.438Z,12.50
2023-10-24T06:37:00.896Z,10.70
2023-10-24T06:39:29.648Z,12.30
2023-10-24T06:41:59.395Z,11.60
2023-10-24T06:44:27.674Z,11.80
2023-10-24T06:46:56.087Z,14.40
2023-10-24T06:49:24.088Z,9.30
2023-10-24T06:51:52.185Z,8.70
2023-10-24T06:54:20.293Z,5.90
2023-10-24T06:56:48.230Z,8.30
2023-10-24T06:59:16.043Z,6.60
2023-10-24T07:01:44.016Z,7.30
2023-10-24T07:04:12.248Z,8.10
2023-10-24T07:06:40.298Z,7.80
2023-10-24T07:09:08.041Z,8.50
2023-10-24T07:11:36.031Z,6.90
2023-10-24T07:14:05.129Z,9.80
2023-10-24T07:16:33.207Z,10.20
2023-10-24T07:19:01.014Z,8.10
2023-10-24T07:21:28.906Z,6.50
2023-10-24T07:23:57.749Z,12.40
2023-10-24T07:26:25.646Z,8.80
2023-10-24T07:28:55.141Z,7.90
2023-10-24T07:31:23.276Z,7.10
2023-10-24T07:33:51.552Z,12.60
2023-10-24T07:36:19.668Z,49.10
2023-10-24T07:38:47.676Z,116.40
2023-10-24T07:41:15.828Z,16.50
2023-10-24T07:43:43.847Z,18.30
2023-10-24T07:46:11.945Z,10.10
2023-10-24T07:48:39.791Z,9.10
2023-10-24T07:51:08.079Z,5.80
2023-10-24T07:53:36.348Z,8.00
2023-10-24T07:56:06.871Z,10.20
2023-10-24T07:58:34.898Z,8.50
2023-10-24T08:01:05.149Z,7.10
2023-10-24T08:03:33.250Z,6.70
2023-10-24T08:06:01.373Z,8.30
2023-10-24T08:08:29.218Z,6.50
2023-10-24T08:10:57.045Z,7.70
2023-10-24T08:13:25.103Z,12.70
2023-10-24T08:15:53.727Z,6.70
2023-10-24T08:18:22.044Z,7.70
2023-10-24T08:20:49.962Z,6.70
2023-10-24T08:23:18.017Z,12.60
2023-10-24T08:25:46.179Z,8.30
2023-10-24T08:28:14.290Z,7.90
2023-10-24T08:30:42.299Z,11.30
2023-10-24T08:33:10.211Z,9.50
2023-10-24T08:35:38.178Z,7.00
2023-10-24T08:38:06.042Z,9.40
2023-10-24T08:40:34.015Z,9.10
2023-10-24T08:43:02.067Z,8.40
2023-10-24T08:45:30.069Z,23.30
2023-10-24T08:47:58.506Z,13.30
2023-10-24T08:50:26.823Z,16.80
2023-10-24T08:52:54.999Z,10.30
2023-10-24T08:55:22.812Z,6.10
2023-10-24T08:57:51.192Z,6.70
2023-10-24T09:00:21.112Z,6.70
2023-10-24T09:02:49.169Z,6.70
2023-10-24T09:05:17.171Z,6.60
2023-10-24T09:07:45.291Z,8.70
2023-10-24T09:10:13.288Z,4.90
2023-10-24T09:12:41.445Z,5.70
2023-10-24T09:15:12.707Z,3.50
2023-10-24T09:17:42.334Z,5.10
2023-10-24T09:20:10.557Z,5.80
2023-10-24T09:22:41.704Z,5.00
2023-10-24T09:25:09.932Z,6.10
2023-10-24T09:27:37.969Z,5.40
2023-10-24T09:30:12.549Z,5.40
2023-10-24T09:32:42.439Z,10.50
2023-10-24T09:35:11.105Z,7.60
2023-10-24T09:37:46.955Z,8.80
2023-10-24T09:40:15.237Z,11.00
2023-10-24T09:42:43.394Z,19.20
2023-10-24T09:45:11.513Z,15.00
2023-10-24T09:47:43.381Z,16.50
2023-10-24T09:50:13.102Z,13.40
2023-10-24T09:52:41.162Z,16.20
2023-10-24T09:55:09.724Z,11.30
2023-10-24T09:57:37.851Z,24.60
2023-10-24T10:00:06.527Z,12.60
2023-10-24T10:02:37.302Z,24.90
2023-10-24T10:05:06.118Z,13.00
2023-10-24T10:07:37.273Z,18.60
2023-10-24T10:10:06.161Z,18.10
2023-10-24T10:12:34.009Z,14.90
2023-10-24T10:15:05.221Z,13.30
2023-10-24T10:17:42.648Z,20.90
2023-10-24T10:20:20.096Z,17.80
2023-10-24T10:23:00.329Z,18.70
2023-10-24T10:25:31.248Z,21.10
2023-10-24T10:28:11.455Z,25.60
2023-10-24T10:32:36.976Z,20.20
2023-10-24T10:33:59.321Z,15.20
2023-10-24T10:36:27.788Z,15.50
2023-10-24T10:39:01.639Z,14.50
2023-10-24T10:41:34.028Z,16.00
2023-10-24T10:44:02.995Z,13.20
2023-10-24T10:46:32.053Z,16.80
2023-10-24T10:49:01.798Z,13.60
2023-10-24T10:51:31.569Z,10.20
2023-10-24T10:54:10.475Z,10.50
2023-10-24T10:56:40.810Z,11.60
2023-10-24T10:59:09.317Z,9.40
2023-10-24T11:01:56.962Z,10.10
2023-10-24T11:04:25.197Z,14.30
2023-10-24T11:06:57.149Z,14.50
2023-10-24T11:09:32.008Z,15.10
2023-10-24T11:12:20.447Z,9.60
2023-10-24T11:15:18.122Z,12.00
2023-10-24T11:17:47.639Z,15.50
2023-10-24T11:20:22.444Z,11.50
2023-10-24T11:22:51.909Z,12.70
2023-10-24T11:25:20.666Z,15.00
2023-10-24T11:27:51.263Z,22.10
2023-10-24T11:30:19.220Z,28.20
2023-10-24T11:32:47.448Z,25.00
2023-10-24T11:35:15.832Z,20.00
2023-10-24T11:37:43.902Z,14.20
2023-10-24T11:40:12.213Z,15.20
2023-10-24T11:42:39.979Z,14.80
2023-10-24T11:45:08.030Z,15.70
2023-10-24T11:47:36.038Z,12.50
2023-10-24T11:50:04.372Z,11.20
2023-10-24T11:52:32.799Z,11.50
2023-10-24T11:55:02.608Z,12.10
2023-10-24T11:57:30.444Z,16.70
2023-10-24T11:59:59.007Z,17.90
2023-10-24T12:02:27.163Z,17.50
2023-10-24T12:04:55.116Z,10.30
2023-10-24T12:07:23.335Z,15.00
2023-10-24T12:09:51.230Z,9.30
2023-10-24T12:12:18.968Z,8.50
2023-10-24T12:14:46.993Z,5.50
2023-10-24T12:17:15.198Z,9.90
2023-10-24T12:19:43.487Z,8.20
2023-10-24T12:22:11.518Z,7.10
2023-10-24T12:24:39.603Z,15.10
2023-10-24T12:27:08.000Z,7.60
2023-10-24T12:29:36.267Z,9.80
2023-10-24T12:32:04.955Z,11.60
2023-10-24T12:34:33.169Z,8.70
2023-10-24T12:37:03.701Z,8.30
2023-10-24T12:39:31.737Z,10.10
2023-10-24T12:41:59.608Z,10.10
2023-10-24T12:44:27.379Z,14.10
2023-10-24T12:46:55.372Z,10.40
2023-10-24T12:49:23.416Z,8.80
2023-10-24T12:51:52.149Z,7.60
2023-10-24T12:54:20.218Z,13.90
2023-10-24T12:56:48.197Z,11.50
2023-10-24T12:59:16.141Z,12.40
2023-10-24T13:01:45.732Z,12.60
2023-10-24T13:04:13.890Z,12.40
2023-10-24T13:06:42.163Z,12.40
2023-10-24T13:09:10.436Z,10.00
2023-10-24T13:11:43.188Z,14.10
2023-10-24T13:14:12.710Z,13.50
2023-10-24T13:16:41.417Z,9.70
2023-10-24T13:19:09.625Z,7.80
2023-10-24T13:21:37.984Z,14.60
2023-10-24T13:24:06.494Z,7.50
2023-10-24T13:26:35.759Z,6.60
2023-10-24T13:29:03.698Z,8.10
2023-10-24T13:31:31.913Z,6.40
2023-10-24T13:36:31.324Z,10.50
2023-10-24T13:39:00.030Z,4.00
2023-10-24T13:41:29.539Z,9.10
2023-10-24T13:43:59.199Z,9.40
2023-10-24T13:46:27.614Z,9.60
2023-10-24T13:48:55.611Z,8.00
2023-10-24T13:51:23.599Z,5.20
2023-10-24T13:53:51.805Z,9.90
2023-10-24T13:56:19.859Z,9.40
2023-10-24T13:58:47.713Z,8.80
2023-10-24T14:01:15.799Z,9.30
2023-10-24T14:03:43.693Z,8.80
2023-10-24T14:06:11.742Z,12.00
2023-10-24T14:08:39.742Z,10.20
2023-10-24T14:11:08.230Z,11.80
2023-10-24T14:13:36.357Z,8.10
2023-10-24T14:16:04.833Z,5.00
2023-10-24T14:18:32.784Z,4.10
2023-10-24T14:21:00.965Z,7.20
2023-10-24T14:23:28.759Z,5.80
2023-10-24T14:25:57.026Z,5.60
2023-10-24T14:28:29.395Z,5.90
2023-10-24T14:30:57.716Z,11.20
2023-10-24T14:33:25.997Z,9.40
2023-10-24T14:35:53.831Z,10.20
2023-10-24T14:38:21.694Z,9.50
2023-10-24T14:40:49.663Z,12.00
2023-10-24T14:43:17.754Z,14.60
2023-10-24T14:45:45.863Z,14.50
2023-10-24T14:48:14.061Z,17.10
2023-10-24T14:50:42.315Z,34.30
2023-10-24T14:53:11.345Z,42.80
2023-10-24T14:55:39.354Z,36.30
2023-10-24T14:58:07.342Z,48.60
2023-10-24T15:00:37.397Z,41.20
2023-10-24T15:03:08.574Z,38.20
2023-10-24T15:05:38.254Z,52.80
2023-10-24T15:08:09.722Z,61.80
2023-10-24T15:10:38.449Z,71.20
2023-10-24T15:13:06.656Z,57.70
2023-10-24T15:15:34.704Z,72.40
2023-10-24T15:18:02.636Z,65.80
2023-10-24T15:20:30.537Z,77.80
2023-10-24T15:22:59.735Z,86.80
2023-10-24T15:25:27.684Z,100.50
2023-10-24T15:27:55.816Z,100.10
2023-10-24T15:30:23.904Z,111.20
2023-10-24T15:32:51.974Z,90.50
2023-10-24T15:35:20.029Z,98.40
2023-10-24T15:37:48.327Z,98.30
2023-10-24T15:40:16.340Z,86.20
2023-10-24T15:42:44.386Z,97.50
2023-10-24T15:45:13.116Z,93.90
2023-10-24T15:47:41.841Z,98.70
2023-10-24T15:50:10.171Z,101.20
2023-10-24T15:52:38.525Z,102.60
2023-10-24T15:55:24.221Z,93.90
2023-10-24T15:57:59.195Z,106.80
2023-10-24T16:00:30.435Z,84.60
2023-10-24T16:02:58.935Z,72.20
2023-10-24T16:05:27.153Z,69.50
2023-10-24T16:07:56.579Z,68.60
2023-10-24T16:10:24.835Z,69.70
2023-10-24T16:12:52.995Z,55.90
2023-10-24T16:15:21.002Z,58.70
2023-10-24T16:17:49.241Z,55.90
2023-10-24T16:20:17.661Z,61.40
2023-10-24T16:22:45.929Z,61.50
2023-10-24T16:25:14.262Z,49.20
2023-10-24T16:27:42.308Z,56.60
2023-10-24T16:30:11.068Z,56.60
2023-10-24T16:32:39.654Z,56.50
2023-10-24T16:35:08.360Z,62.30
2023-10-24T16:37:36.634Z,65.50
2023-10-24T16:40:05.109Z,75.10
2023-10-24T16:42:32.986Z,62.00
2023-10-24T16:45:01.007Z,63.30
2023-10-24T16:47:29.055Z,55.70
2023-10-24T16:49:57.408Z,50.70
2023-10-24T16:52:25.488Z,51.40
2023-10-24T16:54:53.535Z,51.90
2023-10-24T16:57:21.661Z,62.10
2023-10-24T16:59:49.594Z,55.70
2023-10-24T17:02:21.122Z,59.30
2023-10-24T17:04:49.544Z,56.90
2023-10-24T17:07:17.565Z,60.50
2023-10-24T17:09:45.601Z,49.90
2023-10-24T17:12:13.848Z,41.00
2023-10-24T17:14:42.044Z,37.70
2023-10-24T17:17:10.380Z,32.50
2023-10-24T17:19:38.659Z,31.60
2023-10-24T17:22:06.817Z,33.90
2023-10-24T17:24:34.779Z,34.50
2023-10-24T17:27:02.759Z,40.00
2023-10-24T17:29:30.707Z,30.70
2023-10-24T17:31:58.786Z,32.70
2023-10-24T17:34:26.894Z,31.50
2023-10-24T17:36:55.115Z,25.80
2023-10-24T17:39:23.102Z,33.10
2023-10-24T17:41:51.188Z,34.30
2023-10-24T17:44:19.464Z,29.20
2023-10-24T17:46:47.530Z,35.50
2023-10-24T17:49:15.532Z,34.60
2023-10-24T17:51:43.918Z,32.80
2023-10-24T17:54:12.558Z,33.70
2023-10-24T17:56:44.051Z,27.30
2023-10-24T17:59:12.906Z,40.10
2023-10-24T18:01:41.155Z,34.10
2023-10-24T18:04:09.447Z,31.70
2023-10-24T18:06:37.624Z,29.80
2023-10-24T18:09:05.858Z,35.30
2023-10-24T18:11:35.366Z,36.20
2023-10-24T18:14:04.830Z,41.80
2023-10-24T18:16:33.125Z,33.60
2023-10-24T18:19:02.980Z,33.60
2023-10-24T18:21:31.087Z,39.00
2023-10-24T18:23:59.306Z,37.90
2023-10-24T18:26:27.513Z,41.50
2023-10-24T18:28:55.627Z,41.50
2023-10-24T18:31:26.060Z,38.40
2023-10-24T18:33:54.043Z,34.20
2023-10-24T18:36:22.068Z,39.00
2023-10-24T18:38:50.095Z,31.30
2023-10-24T18:41:20.385Z,33.40
2023-10-24T18:43:48.748Z,30.00
2023-10-24T18:46:16.902Z,32.10
2023-10-24T18:48:45.105Z,35.70
2023-10-24T18:51:15.719Z,35.10
2023-10-24T18:53:44.190Z,58.70
2023-10-24T18:56:12.332Z,63.20
2023-10-24T18:58:40.496Z,43.20
2023-10-24T19:01:11.045Z,48.40
2023-10-24T19:03:40.432Z,35.50
2023-10-24T19:06:08.718Z,29.60
2023-10-24T19:08:36.902Z,28.00
2023-10-24T19:11:05.317Z,26.10
2023-10-24T19:13:35.479Z,30.60
2023-10-24T19:16:05.595Z,28.90
2023-10-24T19:18:33.906Z,41.50
2023-10-24T19:21:02.600Z,90.10
2023-10-24T19:23:31.051Z,87.60
2023-10-24T19:25:59.435Z,65.10
2023-10-24T19:28:30.471Z,56.40
2023-10-24T19:30:59.029Z,49.20
2023-10-24T19:33:27.385Z,52.50
2023-10-24T19:35:58.036Z,61.00
2023-10-24T19:38:27.036Z,70.50
2023-10-24T19:40:55.981Z,76.40
2023-10-24T19:43:24.497Z,75.80
2023-10-24T19:45:53.558Z,72.40
2023-10-24T19:48:21.918Z,67.40
2023-10-24T19:50:50.366Z,59.70
2023-10-24T19:53:18.929Z,62.00
2023-10-24T19:55:51.842Z,61.40
2023-10-24T19:58:26.847Z,70.00
2023-10-24T20:00:55.215Z,71.90
2023-10-24T20:03:23.588Z,69.60
2023-10-24T20:05:52.688Z,58.50
2023-10-24T20:08:21.464Z,62.50
2023-10-24T20:11:40.775Z,74.30
2023-10-24T20:13:38.322Z,94.40
2023-10-24T20:16:07.031Z,90.30
2023-10-24T20:18:35.388Z,86.50
2023-10-24T20:21:04.085Z,96.50
2023-10-24T20:23:32.847Z,97.70
2023-10-24T20:26:01.125Z,94.30
2023-10-24T20:28:29.208Z,92.10
2023-10-24T20:30:57.156Z,78.20
2023-10-24T20:33:25.162Z,72.30
2023-10-24T20:35:53.236Z,69.80
2023-10-24T20:38:21.355Z,69.70
2023-10-24T20:40:49.220Z,79.50
2023-10-24T20:43:17.363Z,77.40
2023-10-24T20:45:47.335Z,82.30
2023-10-24T20:48:16.180Z,67.60
2023-10-24T20:50:44.459Z,65.20
2023-10-24T20:53:12.457Z,62.90
2023-10-24T20:55:43.285Z,53.00
2023-10-24T20:58:11.404Z,58.10
2023-10-24T21:00:39.446Z,50.20
2023-10-24T21:03:07.561Z,69.10
2023-10-24T21:05:35.662Z,70.70
2023-10-24T21:08:03.841Z,68.90
2023-10-24T21:10:32.528Z,56.30
2023-10-24T21:13:00.578Z,65.20
2023-10-24T21:15:31.366Z,54.80
2023-10-24T21:17:59.427Z,58.30
2023-10-24T21:20:27.359Z,67.20
2023-10-24T21:22:55.261Z,55.50
2023-10-24T21:25:23.237Z,67.40
2023-10-24T21:27:52.569Z,53.10
2023-10-24T21:30:20.573Z,62.60
2023-10-24T21:32:48.517Z,53.50
2023-10-24T21:35:16.597Z,47.20
2023-10-24T21:37:44.450Z,57.90
2023-10-24T21:40:13.670Z,52.70
2023-10-24T21:42:42.205Z,43.70
2023-10-24T21:45:10.928Z,54.50
2023-10-24T21:47:39.060Z,52.10
2023-10-24T21:50:07.466Z,48.40
2023-10-24T21:52:35.464Z,51.10
2023-10-24T21:55:04.792Z,45.30
2023-10-24T21:57:32.685Z,52.30
2023-10-24T22:00:00.731Z,54.00
2023-10-24T22:02:28.768Z,59.30
2023-10-24T22:04:56.819Z,64.50
2023-10-24T22:07:25.032Z,57.10
2023-10-24T22:09:52.882Z,54.60
2023-10-24T22:12:20.843Z,51.10
2023-10-24T22:14:48.848Z,56.60
2023-10-24T22:17:16.944Z,46.70
2023-10-24T22:19:44.858Z,54.90
2023-10-24T22:22:12.967Z,49.30
2023-10-24T22:24:41.172Z,61.50
2023-10-24T22:27:09.045Z,50.10
2023-10-24T22:29:37.094Z,45.20
2023-10-24T22:32:05.302Z,49.80
2023-10-24T22:34:33.638Z,46.30
2023-10-24T22:37:01.606Z,50.30
2023-10-24T22:39:29.522Z,46.70
2023-10-24T22:41:57.356Z,48.70
2023-10-24T22:44:25.533Z,50.70
2023-10-24T22:46:53.900Z,42.10
2023-10-24T22:49:24.059Z,40.40
2023-10-24T22:51:52.136Z,42.10
2023-10-24T22:54:20.405Z,40.20
2023-10-24T22:56:48.453Z,37.40
2023-10-24T22:59:18.721Z,42.20
2023-10-24T23:01:48.017Z,40.50
2023-10-24T23:04:15.909Z,33.00
2023-10-24T23:06:44.033Z,38.00
2023-10-24T23:09:12.362Z,38.40
2023-10-24T23:11:40.424Z,45.60
2023-10-24T23:14:08.979Z,33.60
2023-10-24T23:16:37.159Z,29.20
2023-10-24T23:19:05.625Z,38.10
2023-10-24T23:21:33.630Z,35.20
2023-10-24T23:24:01.697Z,40.70
2023-10-24T23:26:29.808Z,37.70
2023-10-24T23:28:57.724Z,39.30
2023-10-24T23:31:25.671Z,38.40
2023-10-24T23:33:53.824Z,33.90
2023-10-24T23:36:21.771Z,36.10
2023-10-24T23:38:49.643Z,44.00
2023-10-24T23:41:20.303Z,33.90
2023-10-24T23:43:48.529Z,35.50
2023-10-24T23:46:16.776Z,28.60
2023-10-24T23:48:44.923Z,35.60
2023-10-24T23:51:13.361Z,33.10
2023-10-24T23:53:42.051Z,34.10
2023-10-24T23:56:10.214Z,37.20
2023-10-24T23:58:38.463Z,34.60
